Time;durP1;ratioP1;P1;durP2;ratioP2;P2;SDS_P1;SDS_P2;PMS_P1;PMS_P2;Temp;Humidity;BMP_temperature;BMP_pressure;BME280_temperature;BME280_humidity;BME280_pressure;Samples;Min_cycle;Max_cycle;Signal;HPM_P1;HPM_P2
2021/03/23 00:01:47;;;;;;;3.28;1.63;;;5.90;99.90;;;7.04;67.26;101549.22;5002789;28;20050;-82
2021/03/23 00:04:14;;;;;;;5.40;2.10;;;5.80;99.90;;;7.01;67.41;101553.44;4985028;28;20118;-85
2021/03/23 00:06:41;;;;;;;3.72;1.85;;;5.80;99.90;;;7.00;67.28;101549.00;4986133;28;20048;-85
2021/03/23 00:09:10;;;;;;;4.40;2.40;;;5.80;99.90;;;6.99;66.95;101549.34;5021451;28;20022;-84
2021/03/23 00:11:42;;;;;;;3.65;2.53;;;5.70;99.90;;;6.99;67.25;101552.13;5005348;28;20089;-86
2021/03/23 00:14:13;;;;;;;6.50;3.20;;;5.70;99.90;;;6.96;67.47;101550.78;5023755;28;20445;-86
2021/03/23 00:16:45;;;;;;;5.65;3.15;;;5.80;99.90;;;6.94;67.36;101546.66;5005937;28;20045;-84
2021/03/23 00:19:14;;;;;;;6.05;2.78;;;5.70;99.90;;;6.92;67.32;101543.38;5005326;28;20132;-84
2021/03/23 00:21:42;;;;;;;4.43;2.40;;;5.70;99.90;;;6.91;67.38;101548.09;5005483;28;20040;-86
2021/03/23 00:24:09;;;;;;;6.00;2.72;;;5.70;99.90;;;6.92;67.19;101548.94;5023174;28;20029;-84
2021/03/23 00:26:36;;;;;;;4.43;2.70;;;5.70;99.90;;;6.92;67.28;101541.44;5026722;28;20397;-85
2021/03/23 00:29:03;;;;;;;4.60;2.75;;;5.70;99.90;;;6.92;67.24;101548.94;5024395;28;20029;-84
2021/03/23 00:31:33;;;;;;;4.15;2.67;;;5.70;99.90;;;6.86;67.32;101551.84;5008339;28;20026;-86
2021/03/23 00:34:05;;;;;;;4.70;2.95;;;5.60;99.90;;;6.82;68.07;101550.81;5027322;28;20433;-87
2021/03/23 00:36:41;;;;;;;6.63;3.00;;;5.60;99.90;;;6.82;68.10;101550.81;5010866;28;20037;-86
2021/03/23 00:39:11;;;;;;;4.85;3.10;;;5.60;99.90;;;6.83;68.08;101555.25;5029457;28;20033;-83
2021/03/23 00:41:42;;;;;;;6.40;3.05;;;5.60;99.90;;;6.87;68.16;101556.22;5013062;28;20033;-85
2021/03/23 00:44:14;;;;;;;4.80;2.85;;;5.60;99.90;;;6.90;67.61;101555.59;5006500;28;20046;-84
2021/03/23 00:46:40;;;;;;;4.38;2.58;;;5.70;99.90;;;6.92;67.07;101546.97;5018482;28;20030;-82
2021/03/23 00:49:06;;;;;;;6.47;2.95;;;5.70;99.90;;;6.94;67.15;101550.25;5002028;28;20156;-86
2021/03/23 00:51:32;;;;;;;4.13;2.60;;;5.70;99.90;;;6.95;67.02;101543.59;5017182;28;20102;-83
2021/03/23 00:53:58;;;;;;;4.63;2.90;;;5.70;99.90;;;6.94;67.42;101539.16;5000416;28;20061;-86
2021/03/23 00:56:24;;;;;;;5.35;2.67;;;5.70;99.90;;;6.92;67.95;101538.66;5021251;28;20022;-84
2021/03/23 00:58:49;;;;;;;4.10;2.85;;;5.70;99.90;;;6.92;67.93;101537.81;5008455;28;20041;-83
2021/03/23 01:01:15;;;;;;;4.43;2.50;;;5.70;99.90;;;6.88;67.74;101535.69;5003173;28;20037;-86
2021/03/23 01:03:41;;;;;;;4.75;3.17;;;5.60;99.90;;;6.86;68.06;101534.34;5003343;28;20144;-86
2021/03/23 01:06:07;;;;;;;4.70;2.67;;;5.60;99.90;;;6.82;68.23;101530.53;5004110;28;20500;-85
2021/03/23 01:08:33;;;;;;;5.43;3.15;;;5.60;99.90;;;6.76;67.75;101535.41;4988967;28;20497;-84
2021/03/23 01:10:59;;;;;;;3.83;2.63;;;5.50;99.90;;;6.74;68.20;101531.28;4983767;28;20026;-84
2021/03/23 01:13:25;;;;;;;6.28;3.42;;;5.50;99.90;;;6.71;68.51;101531.91;5004776;28;20033;-84
2021/03/23 01:15:50;;;;;;;3.70;2.25;;;5.50;99.90;;;6.71;68.34;101537.47;4986243;28;20026;-84
2021/03/23 01:18:16;;;;;;;2.88;2.40;;;5.50;99.90;;;6.70;68.16;101531.09;5003784;28;20093;-84
2021/03/23 01:20:42;;;;;;;3.85;2.53;;;5.50;99.90;;;6.72;68.44;101534.38;4985752;28;20525;-84
2021/03/23 01:23:08;;;;;;;3.78;2.38;;;5.50;99.90;;;6.75;68.42;101530.13;4984636;28;20050;-84
2021/03/23 01:25:34;;;;;;;4.13;2.35;;;5.50;99.90;;;6.76;68.52;101535.41;4984561;28;20041;-85
2021/03/23 01:28:01;;;;;;;3.83;2.70;;;5.50;99.90;;;6.78;68.69;101532.28;4983736;28;20057;-85
2021/03/23 01:30:29;;;;;;;4.57;2.60;;;5.60;99.90;;;6.79;68.97;101532.00;4983737;28;20277;-84
2021/03/23 01:32:56;;;;;;;5.50;3.10;;;5.60;99.90;;;6.76;69.13;101548.47;4984545;28;20626;-83
2021/03/23 01:35:26;;;;;;;6.65;2.97;;;5.50;99.90;;;6.76;69.47;101546.50;4984192;28;20038;-85
2021/03/23 01:37:53;;;;;;;5.00;2.88;;;5.50;99.90;;;6.75;69.89;101538.47;5001894;28;20042;-84
2021/03/23 01:40:24;;;;;;;6.05;3.33;;;5.50;99.90;;;6.71;70.14;101543.81;5001936;28;20035;-85
2021/03/23 01:42:57;;;;;;;11.32;3.83;;;5.50;99.90;;;6.73;70.03;101540.75;4985566;28;20041;-84
2021/03/23 01:45:40;;;;;;;6.90;3.53;;;5.50;99.90;;;6.72;69.46;101539.09;4985582;28;20042;-85
2021/03/23 01:48:31;;;;;;;4.13;2.70;;;5.50;99.90;;;6.75;69.84;101544.03;4985125;28;20038;-85
2021/03/23 01:51:07;;;;;;;4.85;2.80;;;5.50;99.90;;;6.76;69.68;101540.94;5002767;28;20093;-84
2021/03/23 01:53:43;;;;;;;6.80;3.20;;;5.60;99.90;;;6.78;69.51;101541.44;4984714;28;20389;-84
2021/03/23 01:56:13;;;;;;;5.43;2.78;;;5.50;99.90;;;6.79;69.38;101545.88;4984310;28;20058;-84
2021/03/23 01:58:48;;;;;;;5.43;2.88;;;5.60;99.90;;;6.82;69.53;101541.66;4984856;28;20026;-84
2021/03/23 02:01:19;;;;;;;6.65;3.38;;;5.60;99.90;;;6.82;69.90;101541.66;4985271;28;20027;-83
2021/03/23 02:03:49;;;;;;;10.35;3.50;;;5.50;99.90;;;6.81;70.13;101538.06;4985697;28;20026;-86
2021/03/23 02:06:46;;;;;;;7.50;3.72;;;5.60;99.90;;;6.80;70.27;101532.81;4985656;28;20421;-84
2021/03/23 02:09:37;;;;;;;7.05;4.13;;;5.60;99.90;;;6.78;70.33;101533.13;5005812;28;20033;-84
2021/03/23 02:12:13;;;;;;;8.43;4.10;;;5.60;99.90;;;6.79;70.28;101537.56;5009183;28;20056;-84
2021/03/23 02:14:47;;;;;;;6.70;4.63;;;5.60;99.90;;;6.80;70.00;101538.38;5008730;28;20058;-84
2021/03/23 02:17:36;;;;;;;11.00;5.15;;;5.50;99.90;;;6.81;69.58;101538.06;5009208;28;20034;-86
2021/03/23 02:20:17;;;;;;;8.75;4.75;;;5.60;99.90;;;6.86;69.42;101534.34;5009271;28;20040;-86
2021/03/23 02:22:50;;;;;;;9.68;5.57;;;5.60;99.90;;;6.87;69.13;101536.00;5010788;28;20042;-87
2021/03/23 02:25:25;;;;;;;12.88;5.68;;;5.60;99.90;;;6.88;69.07;101530.13;5027720;28;20049;-85
2021/03/23 02:27:53;;;;;;;10.43;6.13;;;5.60;99.90;;;6.88;69.04;101527.34;5028963;28;20025;-86
2021/03/23 02:30:36;;;;;;;11.52;6.10;;;5.70;99.90;;;6.92;69.23;101523.94;5014579;28;20049;-85
2021/03/23 02:33:03;;;;;;;10.77;5.97;;;5.70;99.90;;;6.95;69.05;101524.13;5036601;28;20030;-82
2021/03/23 02:35:31;;;;;;;10.00;6.82;;;5.70;99.90;;;6.86;69.17;101521.28;5019678;28;20030;-82
2021/03/23 02:37:59;;;;;;;12.65;6.63;;;5.70;99.90;;;6.90;69.69;101527.84;5012795;28;20072;-83
2021/03/23 02:40:27;;;;;;;12.90;7.28;;;5.70;99.90;;;6.87;69.85;101517.34;5006258;28;20034;-85
2021/03/23 02:42:54;;;;;;;14.05;7.50;;;5.70;99.90;;;6.89;70.01;101519.84;5006038;28;20048;-85
2021/03/23 02:45:22;;;;;;;11.70;6.95;;;5.70;99.90;;;6.86;70.35;101518.50;5005774;28;20033;-86
2021/03/23 02:47:48;;;;;;;16.63;8.40;;;5.70;99.90;;;6.93;70.10;101520.03;5022316;28;20041;-86
2021/03/23 02:50:15;;;;;;;13.80;8.02;;;5.70;99.90;;;6.88;70.06;101520.97;5004577;28;20038;-85
2021/03/23 02:52:42;;;;;;;13.98;7.90;;;5.70;99.90;;;6.84;70.31;101520.75;5021519;28;20034;-86
2021/03/23 02:55:11;;;;;;;18.13;9.35;;;5.60;99.90;;;6.80;70.53;101516.16;5020707;28;20026;-85
2021/03/23 02:57:38;;;;;;;14.93;9.20;;;5.60;99.90;;;6.84;70.47;101511.59;5003813;28;20034;-85
2021/03/23 03:00:18;;;;;;;14.45;9.43;;;5.60;99.90;;;6.83;70.50;101510.81;5021935;28;20034;-85
2021/03/23 03:02:44;;;;;;;17.92;9.93;;;5.60;99.90;;;6.86;70.45;101512.97;5003022;28;20534;-84
2021/03/23 03:05:11;;;;;;;16.25;10.45;;;5.60;99.90;;;6.88;70.70;101504.31;5007811;28;20031;-86
2021/03/23 03:07:37;;;;;;;16.08;10.13;;;5.60;99.90;;;6.89;70.56;101511.50;4998935;28;20034;-85
2021/03/23 03:10:07;;;;;;;17.45;11.50;;;5.60;99.90;;;6.84;70.93;101512.44;4986291;28;20401;-82
2021/03/23 03:12:32;;;;;;;17.15;10.70;;;5.60;99.90;;;6.86;70.87;101503.81;4984681;28;20085;-83
2021/03/23 03:14:59;;;;;;;24.85;11.85;;;5.60;99.90;;;6.79;70.62;101509.78;4987264;28;20046;-86
2021/03/23 03:17:24;;;;;;;15.77;10.95;;;5.60;99.90;;;6.84;70.89;101508.81;5008333;28;20045;-86
2021/03/23 03:19:50;;;;;;;21.45;11.63;;;5.60;99.90;;;6.83;70.95;101507.22;4990930;28;20022;-86
2021/03/23 03:22:16;;;;;;;21.48;12.95;;;5.60;99.90;;;6.81;70.63;101510.28;4992095;28;20465;-86
2021/03/23 03:24:43;;;;;;;21.25;12.45;;;5.60;99.90;;;6.83;70.55;101519.13;5010196;28;20057;-87
2021/03/23 03:27:09;;;;;;;21.40;13.18;;;5.60;99.90;;;6.80;70.78;101508.66;5030081;28;20034;-84
2021/03/23 03:29:35;;;;;;;25.48;14.77;;;5.60;99.90;;;6.77;71.05;101508.47;5016826;28;20027;-82
2021/03/23 03:32:00;;;;;;;24.05;15.45;;;5.60;99.90;;;6.73;71.08;101508.25;5035647;28;20042;-83
2021/03/23 03:34:26;;;;;;;26.60;15.23;;;5.60;99.90;;;6.71;71.22;101502.19;5002664;28;20050;-83
2021/03/23 03:36:52;;;;;;;24.45;15.07;;;5.60;99.90;;;6.67;71.30;101501.19;5002852;28;20026;-83
2021/03/23 03:39:18;;;;;;;23.52;15.20;;;5.60;99.90;;;6.69;71.31;101507.22;5014113;28;20094;-87
2021/03/23 03:41:44;;;;;;;25.65;14.48;;;5.60;99.90;;;6.73;71.02;101515.75;4991089;28;20034;-86
2021/03/23 03:44:10;;;;;;;22.80;13.77;;;5.70;99.90;;;6.75;71.24;101511.53;4990419;28;20064;-85
2021/03/23 03:46:36;;;;;;;24.17;14.18;;;5.60;99.90;;;6.76;70.97;101517.91;4997929;28;20106;-83
2021/03/23 03:49:01;;;;;;;25.23;14.73;;;5.60;99.90;;;6.74;71.19;101511.84;5002244;28;20035;-83
2021/03/23 03:51:27;;;;;;;22.70;13.98;;;5.60;99.90;;;6.78;71.04;101512.84;5035026;28;20039;-83
2021/03/23 03:53:53;;;;;;;24.75;14.38;;;5.60;99.90;;;6.76;71.10;101504.84;5000041;28;20077;-84
2021/03/23 03:56:19;;;;;;;23.17;14.45;;;5.60;99.90;;;6.69;71.71;101506.41;4995939;28;20038;-83
2021/03/23 03:58:46;;;;;;;28.15;14.77;;;5.60;99.90;;;6.65;71.68;101506.19;5003304;28;20087;-83
2021/03/23 04:01:12;;;;;;;25.92;14.70;;;5.60;99.90;;;6.64;71.76;101510.13;5001596;28;20057;-83
2021/03/23 04:03:38;;;;;;;24.52;14.32;;;5.60;99.90;;;6.67;71.98;101503.94;5002263;28;20034;-84
2021/03/23 04:06:04;;;;;;;23.77;15.15;;;5.60;99.90;;;6.70;71.69;101500.56;4985307;28;20434;-83
2021/03/23 04:08:33;;;;;;;24.17;14.50;;;5.60;99.90;;;6.70;72.31;101508.06;4999053;28;20041;-83
2021/03/23 04:11:06;;;;;;;25.85;14.95;;;5.60;99.90;;;6.72;71.91;101506.59;5022369;28;20034;-82
2021/03/23 04:13:32;;;;;;;24.05;14.77;;;5.60;99.90;;;6.70;72.46;101506.09;5004061;28;20038;-84
2021/03/23 04:15:59;;;;;;;23.95;14.90;;;5.60;99.90;;;6.71;71.96;101504.16;5003428;28;20109;-84
2021/03/23 04:18:28;;;;;;;23.73;14.25;;;5.50;99.90;;;6.75;72.25;101505.97;5003159;28;20029;-85
2021/03/23 04:21:00;;;;;;;24.33;13.95;;;5.50;99.90;;;6.78;71.76;101505.34;5003427;28;20094;-84
2021/03/23 04:23:36;;;;;;;22.40;14.13;;;5.60;99.90;;;6.85;71.70;101508.53;5002740;28;20030;-83
2021/03/23 04:26:07;;;;;;;28.60;14.25;;;5.60;99.90;;;6.84;71.70;101500.50;5002766;28;20029;-84
2021/03/23 04:28:35;;;;;;;23.77;14.68;;;5.60;99.90;;;6.84;71.56;101504.09;5002998;28;20030;-84
2021/03/23 04:31:03;;;;;;;22.13;13.48;;;5.60;99.90;;;6.83;71.47;101501.66;5021267;28;20037;-84
2021/03/23 04:33:30;;;;;;;22.45;13.57;;;5.60;99.90;;;6.87;71.41;101499.91;5002312;28;20026;-85
2021/03/23 04:36:08;;;;;;;25.50;14.10;;;5.60;99.90;;;6.86;71.72;101504.63;5002193;28;20037;-84
2021/03/23 04:38:38;;;;;;;21.27;12.23;;;5.60;99.90;;;6.87;71.86;101503.47;5002698;28;20041;-84
2021/03/23 04:41:12;;;;;;;26.10;14.65;;;5.60;99.90;;;6.84;71.98;101506.88;5001396;28;20065;-85
2021/03/23 04:43:45;;;;;;;26.35;14.50;;;5.60;99.90;;;6.85;71.90;101502.97;5002715;28;20037;-84
2021/03/23 04:46:21;;;;;;;23.02;14.35;;;5.60;99.90;;;6.82;71.74;101506.38;5019115;28;20449;-86
2021/03/23 04:48:48;;;;;;;28.75;15.13;;;5.60;99.90;;;6.83;71.78;101505.25;5001692;28;20030;-85
2021/03/23 04:51:20;;;;;;;22.95;15.32;;;5.60;99.90;;;6.84;71.87;101508.81;5018510;28;20036;-84
2021/03/23 04:53:46;;;;;;;24.67;15.02;;;5.60;99.90;;;6.88;71.81;101507.91;5017083;28;20033;-83
2021/03/23 04:56:29;;;;;;;28.33;16.33;;;5.60;99.90;;;6.88;72.08;101509.84;5001849;28;20029;-83
2021/03/23 04:59:01;;;;;;;31.38;15.88;;;5.60;99.90;;;6.86;72.13;101512.13;5018865;28;20030;-82
2021/03/23 05:01:27;;;;;;;28.65;15.65;;;5.60;99.90;;;6.84;72.23;101506.88;5000901;28;20029;-84
2021/03/23 05:04:02;;;;;;;26.70;15.73;;;5.70;99.90;;;6.80;72.48;101510.59;5001659;28;20030;-84
2021/03/23 05:06:28;;;;;;;25.85;15.60;;;5.60;99.90;;;6.81;72.82;101515.00;5000666;28;20022;-83
2021/03/23 05:08:54;;;;;;;24.30;15.20;;;5.60;99.90;;;6.81;72.45;101513.06;5001994;28;20546;-84
2021/03/23 05:11:30;;;;;;;28.83;16.77;;;5.60;99.90;;;6.80;72.86;101510.59;4982710;28;20129;-85
2021/03/23 05:13:57;;;;;;;29.02;16.52;;;5.60;99.90;;;6.86;72.80;101504.63;4985640;28;20084;-83
2021/03/23 05:16:24;;;;;;;30.88;16.83;;;5.70;99.90;;;6.82;73.50;101511.09;4986616;28;20038;-84
2021/03/23 05:18:50;;;;;;;34.35;17.50;;;5.60;99.90;;;6.79;73.11;101515.34;4986279;28;20375;-85
2021/03/23 05:21:20;;;;;;;27.85;16.65;;;5.60;99.90;;;6.86;73.03;101518.50;4986607;28;20088;-85
2021/03/23 05:23:47;;;;;;;30.40;16.95;;;5.60;99.90;;;6.80;73.77;101511.44;4987438;28;20033;-83
2021/03/23 05:26:13;;;;;;;30.85;17.38;;;5.60;99.90;;;6.85;73.27;101516.03;4990095;28;20049;-86
2021/03/23 05:28:40;;;;;;;33.08;17.75;;;5.60;99.90;;;6.83;73.35;101515.53;4992925;28;20014;-82
2021/03/23 05:31:06;;;;;;;29.05;17.13;;;5.60;99.90;;;6.76;73.68;101506.81;4997181;28;20022;-83
2021/03/23 05:33:33;;;;;;;31.73;18.25;;;5.60;99.90;;;6.77;73.64;101500.94;4989471;28;20046;-85
2021/03/23 05:36:00;;;;;;;29.33;18.27;;;5.60;99.90;;;6.80;73.71;101507.84;4985463;28;20076;-84
2021/03/23 05:38:28;;;;;;;31.13;17.83;;;5.60;99.90;;;6.81;73.66;101507.50;4985053;28;20038;-86
2021/03/23 05:41:07;;;;;;;31.63;17.77;;;5.60;99.90;;;6.83;73.30;101513.59;5002155;28;20141;-86
2021/03/23 05:44:44;;;;;;;35.10;18.35;;;5.60;99.90;;;6.86;73.64;101512.97;5018567;28;20039;-84
2021/03/23 05:47:16;;;;;;;34.40;18.25;;;5.60;99.90;;;6.87;73.18;101520.13;4968211;28;20035;-86
2021/03/23 05:50:09;;;;;;;31.42;19.63;;;5.60;99.90;;;6.85;73.39;101525.19;4982433;28;20042;-86
2021/03/23 05:52:49;;;;;;;29.80;18.02;;;5.70;99.90;;;6.85;73.19;101525.19;4986041;28;20457;-86
2021/03/23 05:55:42;;;;;;;29.02;17.27;;;5.70;99.90;;;6.80;73.31;101525.31;5001605;28;20140;-85
2021/03/23 05:58:27;;;;;;;30.10;17.20;;;5.70;99.90;;;6.86;73.75;101517.69;4986321;28;20059;-87
2021/03/23 06:01:02;;;;;;;31.15;18.02;;;5.70;99.90;;;6.86;73.50;101518.50;4985021;28;20053;-87
2021/03/23 06:03:49;;;;;;;29.40;19.08;;;5.70;99.90;;;6.89;73.34;101528.16;5018199;28;20498;-84
2021/03/23 06:07:04;;;;;;;36.72;17.83;;;5.70;99.90;;;6.93;73.03;101533.94;4997826;28;20033;-85
2021/03/23 06:09:38;;;;;;;29.30;16.70;;;5.70;99.90;;;6.97;72.68;101537.72;4960984;28;20089;-87
2021/03/23 06:12:35;;;;;;;29.85;16.42;;;5.70;99.90;;;7.00;72.40;101531.53;4960408;28;20030;-85
2021/03/23 06:15:36;;;;;;;32.85;18.08;;;5.80;99.90;;;7.11;72.06;101535.72;4961011;28;20035;-84
2021/03/23 06:18:25;;;;;;;28.25;16.42;;;5.90;99.90;;;7.09;72.77;101533.25;4977061;28;20120;-86
2021/03/23 06:21:29;;;;;;;31.13;16.67;;;5.90;99.90;;;7.20;71.57;101542.16;4963369;28;20073;-84
2021/03/23 06:24:48;;;;;;;29.80;15.90;;;6.00;99.90;;;7.27;70.57;101546.16;4964398;28;20395;-88
2021/03/23 06:27:41;;;;;;;30.50;16.30;;;6.00;99.90;;;7.37;71.22;101550.66;4960479;28;20369;-87
2021/03/23 06:30:56;;;;;;;31.30;16.20;;;6.10;99.90;;;7.47;70.52;101550.41;4961072;28;20042;-87
2021/03/23 06:33:28;;;;;;;26.95;13.65;;;6.20;99.90;;;7.53;70.33;101545.53;4961223;28;20035;-85
2021/03/23 06:36:04;;;;;;;25.13;14.52;;;6.30;99.90;;;7.47;70.59;101555.97;4975564;28;20427;-84
2021/03/23 06:38:40;;;;;;;26.73;14.93;;;6.30;99.90;;;7.70;69.60;101554.84;4977261;28;20121;-85
2021/03/23 06:41:17;;;;;;;24.67;14.95;;;6.40;99.90;;;7.80;68.90;101556.53;4960867;28;20034;-84
2021/03/23 06:43:58;;;;;;;26.33;14.57;;;6.50;99.90;;;7.81;69.08;101555.38;4960533;28;20387;-87
2021/03/23 06:46:52;;;;;;;28.15;13.95;;;6.60;99.90;;;7.67;69.10;101549.91;4961302;28;20043;-88
2021/03/23 06:49:36;;;;;;;23.52;14.30;;;6.50;99.90;;;7.69;68.99;101550.41;4959945;28;20035;-86
2021/03/23 06:52:15;;;;;;;26.67;14.73;;;6.50;99.90;;;7.73;69.19;101545.84;4960648;28;20031;-87
2021/03/23 06:54:42;;;;;;;24.45;14.63;;;6.50;99.90;;;7.50;69.59;101547.00;4962085;28;20062;-86
2021/03/23 06:57:11;;;;;;;26.60;15.30;;;6.60;99.90;;;7.67;69.27;101544.34;4978280;28;20034;-86
2021/03/23 07:00:15;;;;;;;33.45;16.25;;;6.50;99.90;;;7.51;69.91;101543.09;4960578;28;20027;-87
2021/03/23 07:02:54;;;;;;;29.15;16.15;;;6.50;99.90;;;7.64;69.78;101547.72;4960219;28;20027;-86
2021/03/23 07:05:35;;;;;;;26.40;15.07;;;6.50;99.90;;;7.65;69.41;101552.16;4962079;28;20029;-86
2021/03/23 07:08:27;;;;;;;26.80;14.48;;;6.50;99.90;;;7.56;69.29;101539.34;4984399;28;20026;-85
2021/03/23 07:10:53;;;;;;;28.88;16.15;;;6.60;99.90;;;7.53;69.27;101546.38;5004423;28;20049;-87
2021/03/23 07:17:12;;;;;;;;;;;;;;;;;;;;;
2021/03/23 07:20:13;;;;;;;26.48;14.77;;;6.70;99.90;;;7.72;68.14;101552.53;5019484;28;20174;-87
2021/03/23 07:23:19;;;;;;;26.20;14.60;;;6.60;99.90;;;7.89;67.58;101562.97;5000766;28;20035;-87
2021/03/23 07:25:54;;;;;;;29.40;15.32;;;6.70;99.90;;;7.87;67.97;101559.66;5000347;28;20055;-83
2021/03/23 08:10:02;;;;;;;29.52;17.65;;;7.30;99.90;;;8.55;65.60;101578.69;5018465;28;20050;-87
2021/03/23 08:17:31;;;;;;;;;;;;;;;;;;;;;
2021/03/23 09:08:36;;;;;;;33.42;19.58;;;10.00;99.90;;;11.16;57.11;101546.88;5016286;28;20470;-86
2021/03/23 09:11:14;;;;;;;35.25;19.80;;;10.10;99.90;;;11.07;57.22;101552.53;5016382;28;20033;-85
2021/03/23 09:13:40;;;;;;;33.38;19.15;;;10.10;99.90;;;11.28;57.11;101544.13;5012747;28;20414;-85
2021/03/23 09:16:18;;;;;;;35.40;20.58;;;10.00;99.90;;;11.33;57.92;101553.16;4980755;28;20022;-86
2021/03/23 09:19:10;;;;;;;39.53;20.48;;;10.10;99.90;;;11.41;58.01;101545.84;4981730;28;20034;-86
2021/03/23 09:21:57;;;;;;;36.15;20.65;;;10.20;99.90;;;11.88;56.20;101546.44;4981074;28;20058;-85
2021/03/23 09:24:39;;;;;;;34.20;19.90;;;10.60;99.90;;;12.21;55.03;101551.97;4980013;28;20121;-87
2021/03/23 09:27:45;;;;;;;34.75;19.33;;;10.90;99.90;;;12.22;55.50;101545.22;4980091;28;20041;-87
2021/03/23 09:30:48;;;;;;;34.43;18.93;;;11.10;99.90;;;12.77;53.44;101553.06;4980065;28;20516;-85
2021/03/23 09:33:23;;;;;;;32.28;19.42;;;11.20;99.90;;;12.89;53.84;101558.66;4998837;28;20034;-88
2021/03/23 09:36:14;;;;;;;33.72;19.88;;;11.40;99.90;;;12.73;54.65;101558.56;4980369;28;20042;-84
2021/03/23 09:39:15;;;;;;;34.30;19.98;;;11.50;99.90;;;12.81;53.89;101543.59;4981123;28;20130;-87
2021/03/23 09:42:11;;;;;;;34.45;21.10;;;11.60;99.90;;;12.63;53.67;101543.03;4980554;28;20034;-85
2021/03/23 09:45:15;;;;;;;40.30;20.30;;;11.60;99.90;;;13.02;53.45;101547.09;4982082;28;20113;-85
2021/03/23 09:47:59;;;;;;;36.28;20.15;;;11.80;99.90;;;13.35;52.55;101532.91;4996570;28;20038;-86
2021/03/23 09:51:05;;;;;;;37.28;20.20;;;12.10;99.90;;;13.53;50.99;101528.63;4979797;28;20034;-85
2021/03/23 09:53:42;;;;;;;39.00;21.60;;;12.30;99.90;;;13.80;50.50;101521.38;4978098;28;20054;-87
2021/03/23 09:56:25;;;;;;;42.22;21.45;;;12.40;99.90;;;13.90;50.65;101534.06;4982047;28;20030;-84
2021/03/23 09:59:10;;;;;;;36.10;21.65;;;12.50;99.90;;;13.75;49.77;101532.84;5015209;28;20063;-84
2021/03/23 10:01:53;;;;;;;34.00;20.10;;;12.60;98.50;;;13.93;50.94;101530.53;5000490;28;20035;-87
2021/03/23 10:04:36;;;;;;;37.85;22.58;;;12.60;99.90;;;14.58;49.87;101527.06;4980160;28;20065;-87
2021/03/23 10:07:37;;;;;;;37.78;22.05;;;13.00;99.70;;;14.57;50.83;101522.63;4980638;28;20069;-87
2021/03/23 10:10:32;;;;;;;41.65;22.20;;;13.20;98.60;;;15.07;49.82;101518.97;4981458;28;20049;-89
2021/03/23 10:13:27;;;;;;;41.95;23.35;;;13.70;98.00;;;14.73;49.62;101514.16;4981397;28;20026;-88
2021/03/23 10:15:55;;;;;;;35.15;22.05;;;13.60;96.10;;;14.58;50.29;101510.19;5000900;28;20030;-85
2021/03/23 10:18:32;;;;;;;42.33;23.38;;;13.50;96.00;;;14.02;51.26;101509.53;4980901;28;20046;-87
2021/03/23 10:21:16;;;;;;;38.63;22.42;;;13.10;96.20;;;14.20;51.26;101515.59;4981368;28;20048;-86
2021/03/23 10:26:19;;;;;;;38.45;22.67;;;12.80;97.20;;;14.19;50.26;101516.81;5066473;22;20057;-87
2021/03/23 10:28:53;;;;;;;42.92;23.13;;;12.70;97.70;;;13.98;52.11;101511.44;5035992;28;20041;-85
2021/03/23 10:31:49;;;;;;;33.42;20.45;;;12.60;99.50;;;13.42;52.11;101513.44;5035203;28;20025;-88
2021/03/23 10:34:33;;;;;;;39.92;22.13;;;12.60;98.10;;;13.27;53.41;101505.78;5020228;28;20029;-87
2021/03/23 10:37:11;;;;;;;41.25;22.10;;;12.50;99.30;;;13.85;51.72;101509.88;5019485;28;20072;-86
2021/03/23 10:39:49;;;;;;;44.28;22.70;;;12.60;99.40;;;13.71;51.91;101507.47;5038779;28;20026;-85
2021/03/23 10:42:33;;;;;;;40.78;22.23;;;12.60;99.00;;;13.90;52.10;101506.78;5042999;28;20064;-85
2021/03/23 10:46:05;;;;;;;37.58;21.85;;;12.70;99.40;;;13.97;51.09;101508.97;5042861;28;20190;-85
2021/03/23 10:48:40;;;;;;;35.67;20.73;;;13.00;97.90;;;14.29;51.59;101502.19;5025432;28;20080;-85
2021/03/23 10:51:29;;;;;;;34.72;20.25;;;13.10;98.70;;;14.49;51.60;101506.75;5025336;28;20458;-87
2021/03/23 10:54:15;;;;;;;35.47;20.00;;;13.20;99.00;;;14.21;50.80;101512.44;5041539;28;20091;-87
2021/03/23 10:56:48;;;;;;;36.88;18.95;;;13.20;96.70;;;14.33;51.14;101510.72;5041595;28;20095;-84
2021/03/23 10:59:21;;;;;;;39.08;19.92;;;13.30;96.90;;;14.32;50.75;101501.47;5040523;28;20034;-86
2021/03/23 11:02:10;;;;;;;32.70;18.40;;;13.20;96.70;;;14.76;49.76;101497.38;5040542;28;20032;-87
2021/03/23 11:05:10;;;;;;;28.40;16.00;;;13.40;96.20;;;15.16;47.11;101499.06;5040295;28;20025;-86
2021/03/23 11:07:54;;;;;;;24.48;15.23;;;13.60;94.00;;;14.53;47.63;101492.78;5040165;28;20022;-86
2021/03/23 11:10:40;;;;;;;23.33;13.35;;;13.70;90.90;;;15.12;47.59;101493.34;5025013;28;20052;-89
2021/03/23 11:13:19;;;;;;;21.40;14.52;;;13.90;91.50;;;15.18;46.36;101491.91;5024289;28;20029;-88
2021/03/23 11:15:50;;;;;;;28.23;15.93;;;14.10;89.20;;;14.13;48.55;101490.13;5041196;28;20044;-86
2021/03/23 11:18:29;;;;;;;27.60;15.48;;;13.60;89.40;;;14.47;48.68;101483.00;5023208;28;20470;-86
2021/03/23 11:21:01;;;;;;;25.20;16.15;;;13.50;90.80;;;14.22;48.93;101479.56;5044020;28;20042;-86
2021/03/23 11:23:48;;;;;;;31.27;18.05;;;13.40;91.00;;;14.36;49.02;101476.28;5026404;28;20053;-84
2021/03/23 11:26:23;;;;;;;28.88;16.65;;;13.30;91.40;;;13.92;49.73;101475.53;5022313;28;20060;-86
2021/03/23 11:28:56;;;;;;;27.95;16.58;;;13.10;91.30;;;13.63;49.87;101479.56;5039082;28;20116;-87
2021/03/23 11:31:28;;;;;;;27.83;16.45;;;12.90;91.60;;;13.93;50.55;101474.38;5022731;28;20524;-87
2021/03/23 11:33:56;;;;;;;27.83;16.33;;;12.80;92.90;;;14.23;49.45;101473.56;5022708;28;20044;-86
2021/03/23 11:36:23;;;;;;;27.80;17.17;;;13.00;92.70;;;13.61;50.48;101468.69;5039627;28;20029;-87
2021/03/23 11:38:51;;;;;;;30.33;17.83;;;12.70;92.40;;;14.28;49.15;101469.66;5038654;28;20025;-87
2021/03/23 11:41:37;;;;;;;27.17;16.52;;;13.00;92.80;;;14.99;47.99;101466.56;5022122;28;20037;-86
2021/03/23 11:44:16;;;;;;;30.98;17.30;;;13.60;92.10;;;15.21;46.70;101473.47;5021991;28;20052;-89
2021/03/23 11:47:23;;;;;;;29.92;18.50;;;13.90;90.00;;;14.71;46.98;101472.34;5022951;28;20030;-85
2021/03/23 11:50:11;;;;;;;34.90;18.30;;;13.50;88.60;;;14.13;49.57;101462.03;5024508;28;20054;-87
2021/03/23 11:52:40;;;;;;;27.77;16.75;;;13.20;91.50;;;14.29;49.58;101464.88;5022997;28;20037;-87
2021/03/23 11:55:12;;;;;;;27.30;17.30;;;13.20;91.70;;;14.32;49.37;101461.31;5022216;28;20037;-87
2021/03/23 11:57:39;;;;;;;29.90;18.08;;;13.20;91.90;;;14.82;48.48;101469.78;5039737;28;20060;-86
2021/03/23 12:00:13;;;;;;;29.67;17.70;;;13.50;91.30;;;15.05;48.06;101469.91;5053567;28;20079;-86
2021/03/23 12:02:42;;;;;;;25.63;15.95;;;13.70;90.90;;;14.74;48.00;101477.22;5058262;28;20056;-86
2021/03/23 12:05:16;;;;;;;27.95;17.67;;;13.70;90.00;;;14.48;49.34;101471.38;5058082;28;20025;-82
2021/03/23 12:08:30;;;;;;;32.50;19.63;;;13.50;90.80;;;15.06;48.26;101468.69;5050166;28;20042;-87
2021/03/23 12:11:20;;;;;;;28.48;17.10;;;13.60;90.80;;;14.69;48.02;101468.28;5058570;28;20045;-82
2021/03/23 12:14:27;;;;;;;32.90;18.80;;;13.60;90.40;;;14.32;49.50;101466.94;5057916;28;20044;-83
2021/03/23 12:17:03;;;;;;;29.33;18.00;;;13.20;90.90;;;13.93;51.15;101468.75;5041405;28;20025;-83
2021/03/23 12:19:39;;;;;;;;;;;13.00;92.70;;;13.76;51.19;101469.09;5041846;28;20036;-85
2021/03/23 12:22:20;;;;;;;31.70;17.30;;;12.80;92.80;;;14.07;50.48;101466.31;5052172;28;19921;-87
2021/03/23 12:24:57;;;;;;;26.75;18.75;;;12.90;93.20;;;13.99;49.92;101462.50;5024557;28;20040;-86
2021/03/23 12:27:24;;;;;;;31.50;17.52;;;12.90;92.40;;;14.12;49.82;101461.25;5040163;28;20033;-84
2021/03/23 12:29:50;;;;;;;26.90;17.33;;;12.80;92.80;;;14.10;49.40;101463.59;5022756;28;20026;-88
2021/03/23 12:32:32;;;;;;;30.73;17.35;;;12.80;92.70;;;13.98;49.60;101458.06;5040535;28;20025;-88
2021/03/23 12:35:26;;;;;;;25.98;16.13;;;12.80;92.20;;;13.95;51.46;101458.78;5023447;28;20477;-87